createdAt,value
2022-08-27T00:02:14.392Z,18.37
2022-08-27T00:04:44.604Z,16.70
2022-08-27T00:07:14.594Z,17.83
2022-08-27T00:09:43.081Z,26.15
2022-08-27T00:12:12.523Z,17.00
2022-08-27T00:14:41.137Z,17.25
2022-08-27T00:17:09.552Z,16.70
2022-08-27T00:19:38.042Z,13.60
2022-08-27T00:22:09.685Z,14.02
2022-08-27T00:24:46.441Z,15.88
2022-08-27T00:27:18.491Z,15.27
2022-08-27T00:29:47.234Z,15.60
2022-08-27T00:32:16.074Z,15.05
2022-08-27T00:34:44.738Z,12.25
2022-08-27T00:37:14.472Z,14.47
2022-08-27T00:39:43.056Z,13.30
2022-08-27T00:42:11.681Z,16.77
2022-08-27T00:44:40.304Z,15.90
2022-08-27T00:47:12.836Z,16.85
2022-08-27T00:49:44.765Z,15.23
2022-08-27T00:52:19.935Z,14.68
2022-08-27T00:54:48.575Z,16.45
2022-08-27T00:57:17.178Z,14.30
2022-08-27T00:59:46.601Z,11.50
2022-08-27T01:04:53.563Z,13.48
2022-08-27T01:07:24.880Z,12.88
2022-08-27T01:10:00.492Z,11.07
2022-08-27T01:12:31.414Z,16.73
2022-08-27T01:14:59.920Z,16.27
2022-08-27T01:17:28.863Z,18.77
2022-08-27T01:20:02.506Z,19.48
2022-08-27T01:22:42.746Z,13.77
2022-08-27T01:25:15.723Z,17.70
2022-08-27T01:27:45.817Z,15.20
2022-08-27T01:30:18.357Z,12.60
2022-08-27T01:32:47.872Z,11.77
2022-08-27T01:35:18.184Z,12.57
2022-08-27T01:37:52.433Z,18.90
2022-08-27T01:40:23.522Z,16.83
2022-08-27T01:42:54.775Z,26.38
2022-08-27T01:45:25.896Z,12.45
2022-08-27T01:47:54.145Z,12.15
2022-08-27T01:50:25.262Z,15.43
2022-08-27T01:52:55.397Z,13.20
2022-08-27T01:55:27.211Z,13.73
2022-08-27T01:57:56.381Z,9.52
2022-08-27T02:00:27.037Z,10.25
2022-08-27T02:02:56.769Z,9.90
2022-08-27T02:05:25.280Z,13.13
2022-08-27T02:07:54.350Z,11.38
2022-08-27T02:10:27.504Z,12.93
2022-08-27T02:12:55.874Z,9.80
2022-08-27T02:15:25.300Z,13.45
2022-08-27T02:20:24.102Z,10.45
2022-08-27T02:22:57.501Z,17.38
2022-08-27T02:25:29.059Z,16.77
2022-08-27T02:28:00.425Z,13.82
2022-08-27T02:30:32.214Z,13.95
2022-08-27T02:33:01.084Z,11.90
2022-08-27T02:35:31.824Z,14.48
2022-08-27T02:38:00.134Z,11.82
2022-08-27T02:40:30.052Z,12.85
2022-08-27T02:42:58.580Z,15.13
2022-08-27T02:45:26.787Z,18.13
2022-08-27T02:47:55.216Z,12.35
2022-08-27T02:50:27.040Z,19.80
2022-08-27T02:52:55.934Z,10.98
2022-08-27T02:55:24.852Z,14.10
2022-08-27T02:57:54.429Z,10.30
2022-08-27T03:00:24.535Z,14.55
2022-08-27T03:02:53.309Z,13.10
2022-08-27T03:05:22.300Z,10.98
2022-08-27T03:07:50.753Z,13.07
2022-08-27T03:14:03.269Z,16.60
2022-08-27T03:16:34.578Z,13.57
2022-08-27T03:19:02.079Z,11.85
2022-08-27T03:21:30.408Z,11.82
2022-08-27T03:24:01.124Z,11.40
2022-08-27T03:26:39.471Z,11.75
2022-08-27T03:29:09.533Z,11.50
2022-08-27T03:31:37.947Z,10.73
2022-08-27T03:34:09.552Z,14.20
2022-08-27T03:36:37.984Z,12.52
2022-08-27T03:39:06.251Z,13.30
2022-08-27T03:41:45.558Z,11.15
2022-08-27T03:44:25.149Z,10.52
2022-08-27T03:46:53.814Z,16.40
2022-08-27T03:49:23.723Z,10.82
2022-08-27T03:51:53.998Z,12.80
2022-08-27T03:54:22.638Z,12.80
2022-08-27T03:56:51.288Z,15.38
2022-08-27T03:59:20.304Z,12.05
2022-08-27T04:01:49.870Z,11.88
2022-08-27T04:04:18.244Z,11.65
2022-08-27T04:06:46.809Z,15.10
2022-08-27T04:09:15.088Z,15.27
2022-08-27T04:11:43.747Z,16.23
2022-08-27T04:14:14.550Z,13.88
2022-08-27T04:16:55.072Z,15.55
2022-08-27T04:19:27.253Z,15.02
2022-08-27T04:22:00.915Z,15.25
2022-08-27T04:24:31.029Z,12.15
2022-08-27T04:26:59.567Z,10.68
2022-08-27T04:29:27.784Z,11.83
2022-08-27T04:31:57.755Z,13.23
2022-08-27T04:34:26.680Z,9.43
2022-08-27T04:36:57.787Z,11.77
2022-08-27T04:39:27.471Z,13.60
2022-08-27T04:44:26.785Z,11.05
2022-08-27T04:46:59.122Z,13.20
2022-08-27T04:49:28.052Z,11.93
2022-08-27T04:51:57.074Z,13.68
2022-08-27T04:54:32.728Z,13.80
2022-08-27T04:57:02.887Z,12.43
2022-08-27T05:02:03.620Z,12.83
2022-08-27T05:04:35.574Z,15.27
2022-08-27T05:07:03.840Z,12.15
2022-08-27T05:09:32.160Z,11.10
2022-08-27T05:12:00.615Z,11.90
2022-08-27T05:14:30.418Z,10.02
2022-08-27T05:17:00.483Z,10.20
2022-08-27T05:19:29.125Z,13.27
2022-08-27T05:21:57.346Z,10.35
2022-08-27T05:24:25.943Z,12.30
2022-08-27T05:26:54.607Z,12.27
2022-08-27T05:29:23.551Z,15.80
2022-08-27T05:31:51.892Z,11.57
2022-08-27T05:34:26.858Z,13.07
2022-08-27T05:36:55.789Z,13.00
2022-08-27T05:39:24.477Z,12.30
2022-08-27T05:41:53.786Z,10.77
2022-08-27T05:47:10.200Z,11.52
2022-08-27T05:49:40.203Z,9.80
2022-08-27T05:52:12.201Z,11.82
2022-08-27T05:54:40.948Z,13.32
2022-08-27T05:57:09.694Z,11.38
2022-08-27T05:59:55.919Z,9.75
2022-08-27T06:02:24.741Z,17.05
2022-08-27T06:04:54.718Z,10.43
2022-08-27T06:07:22.975Z,8.82
2022-08-27T06:09:51.360Z,10.80
2022-08-27T06:12:19.769Z,15.50
2022-08-27T06:14:57.719Z,12.05
2022-08-27T06:17:26.057Z,11.30
2022-08-27T06:19:55.903Z,11.55
2022-08-27T06:22:24.973Z,13.68
2022-08-27T06:24:53.229Z,9.25
2022-08-27T06:27:21.572Z,11.02
2022-08-27T06:29:50.496Z,24.83
2022-08-27T06:32:19.319Z,11.95
2022-08-27T06:34:47.675Z,13.45
2022-08-27T06:37:17.611Z,13.27
2022-08-27T06:39:45.835Z,9.80
2022-08-27T06:42:14.960Z,12.90
2022-08-27T06:44:43.427Z,11.98
2022-08-27T06:47:12.220Z,9.48
2022-08-27T06:49:46.250Z,14.30
2022-08-27T06:52:15.518Z,7.90
2022-08-27T06:54:45.902Z,17.60
2022-08-27T06:57:14.400Z,17.98
2022-08-27T06:59:42.767Z,15.90
2022-08-27T07:02:11.333Z,12.15
2022-08-27T07:04:39.689Z,10.45
2022-08-27T07:07:08.226Z,12.93
2022-08-27T07:09:36.446Z,16.87
2022-08-27T07:12:07.901Z,10.93
2022-08-27T07:14:38.285Z,9.98
2022-08-27T07:17:11.253Z,12.55
2022-08-27T07:19:45.448Z,14.07
2022-08-27T07:22:14.248Z,14.68
2022-08-27T07:24:42.516Z,10.57
2022-08-27T07:27:12.437Z,14.00
2022-08-27T07:29:41.021Z,11.77
2022-08-27T07:32:09.270Z,12.90
2022-08-27T07:34:37.684Z,14.45
2022-08-27T07:37:06.232Z,9.93
2022-08-27T07:39:34.455Z,11.70
2022-08-27T07:42:20.845Z,13.82
2022-08-27T07:44:50.495Z,11.75
2022-08-27T07:47:19.210Z,16.73
2022-08-27T07:49:48.564Z,11.82
2022-08-27T07:52:17.371Z,10.57
2022-08-27T07:54:45.988Z,13.55
2022-08-27T07:57:14.630Z,9.90
2022-08-27T07:59:42.828Z,9.25
2022-08-27T08:02:13.670Z,19.30
2022-08-27T08:04:41.992Z,16.83
2022-08-27T08:07:10.245Z,11.23
2022-08-27T08:09:39.024Z,12.85
2022-08-27T08:12:07.615Z,11.23
2022-08-27T08:14:35.872Z,9.75
2022-08-27T08:17:10.154Z,15.00
2022-08-27T08:19:40.495Z,11.32
2022-08-27T08:22:09.473Z,9.70
2022-08-27T08:24:37.681Z,9.27
2022-08-27T08:27:07.818Z,12.85
2022-08-27T08:29:37.741Z,15.13
2022-08-27T08:32:07.836Z,14.93
2022-08-27T08:34:36.956Z,11.93
2022-08-27T08:37:07.952Z,13.07
2022-08-27T08:39:37.853Z,11.25
2022-08-27T08:42:09.054Z,13.55
2022-08-27T08:44:43.259Z,16.75
2022-08-27T08:47:16.119Z,15.50
2022-08-27T08:49:50.804Z,16.02
2022-08-27T08:52:33.774Z,14.52
2022-08-27T08:55:13.183Z,10.23
2022-08-27T09:00:15.319Z,12.90
2022-08-27T09:02:53.800Z,13.02
2022-08-27T09:05:27.249Z,11.93
2022-08-27T09:08:30.861Z,10.88
2022-08-27T09:11:01.023Z,10.32
2022-08-27T09:13:34.253Z,12.55
2022-08-27T09:16:05.158Z,10.73
2022-08-27T09:18:37.549Z,13.02
2022-08-27T09:21:17.552Z,8.73
2022-08-27T09:24:06.516Z,10.77
2022-08-27T09:29:22.755Z,11.18
2022-08-27T09:31:57.215Z,10.57
2022-08-27T09:34:26.839Z,11.05
2022-08-27T09:37:02.004Z,15.57
2022-08-27T09:39:36.195Z,11.70
2022-08-27T09:42:06.055Z,8.43
2022-08-27T09:44:34.611Z,11.32
2022-08-27T09:47:04.938Z,8.90
2022-08-27T09:49:36.964Z,9.43
2022-08-27T09:52:06.540Z,9.32
2022-08-27T09:54:43.504Z,10.20
2022-08-27T09:57:13.922Z,9.13
2022-08-27T09:59:53.784Z,10.10
2022-08-27T10:02:25.250Z,10.73
2022-08-27T10:04:56.176Z,8.48
2022-08-27T10:07:37.167Z,9.35
2022-08-27T10:10:14.369Z,13.85
2022-08-27T10:12:56.233Z,9.07
2022-08-27T10:15:28.182Z,16.95
2022-08-27T10:18:04.727Z,7.55
2022-08-27T10:20:42.395Z,8.23
2022-08-27T10:23:21.856Z,7.93
2022-08-27T10:26:00.361Z,16.42
2022-08-27T10:28:39.044Z,11.18
2022-08-27T10:31:19.909Z,7.00
2022-08-27T10:34:04.982Z,9.10
2022-08-27T10:36:44.694Z,8.38
2022-08-27T10:41:57.136Z,9.43
2022-08-27T10:44:50.039Z,8.45
2022-08-27T10:47:35.348Z,9.80
2022-08-27T10:50:08.246Z,6.10
2022-08-27T10:52:42.541Z,7.40
2022-08-27T10:55:16.342Z,8.23
2022-08-27T10:58:08.005Z,6.13
2022-08-27T11:00:44.296Z,10.38
2022-08-27T11:03:20.520Z,8.68
2022-08-27T11:05:52.022Z,7.75
2022-08-27T11:08:27.832Z,7.70
2022-08-27T11:11:11.776Z,11.77
2022-08-27T11:13:52.926Z,7.82
2022-08-27T11:16:27.501Z,10.00
2022-08-27T11:19:01.736Z,7.97
2022-08-27T11:21:35.605Z,8.20
2022-08-27T11:24:16.059Z,12.27
2022-08-27T11:26:45.567Z,9.82
2022-08-27T11:29:23.278Z,8.95
2022-08-27T11:31:59.946Z,11.05
2022-08-27T11:34:38.320Z,9.07
2022-08-27T11:37:38.854Z,7.67
2022-08-27T11:40:29.831Z,5.43
2022-08-27T11:43:03.126Z,9.07
2022-08-27T11:45:38.754Z,5.95
2022-08-27T11:48:26.665Z,6.80
2022-08-27T11:50:59.120Z,8.30
2022-08-27T11:53:30.669Z,7.03
2022-08-27T11:56:10.827Z,5.63
2022-08-27T11:58:53.179Z,8.40
2022-08-27T12:01:29.233Z,5.88
2022-08-27T12:04:06.458Z,8.88
2022-08-27T12:06:44.339Z,7.07
2022-08-27T12:09:20.533Z,5.05
2022-08-27T12:12:01.312Z,10.10
2022-08-27T12:14:44.345Z,7.65
2022-08-27T12:17:25.151Z,5.60
2022-08-27T12:20:07.506Z,8.50
2022-08-27T12:23:21.791Z,8.63
2022-08-27T12:25:58.167Z,7.05
2022-08-27T12:28:28.622Z,11.50
2022-08-27T12:30:58.795Z,6.50
2022-08-27T12:33:34.577Z,5.22
2022-08-27T12:36:11.396Z,5.57
2022-08-27T12:38:50.352Z,5.63
2022-08-27T12:41:27.968Z,8.23
2022-08-27T12:44:07.674Z,5.55
2022-08-27T12:46:40.059Z,5.97
2022-08-27T12:49:36.820Z,12.15
2022-08-27T12:52:04.371Z,9.00
2022-08-27T12:54:44.939Z,15.38
2022-08-27T12:57:23.550Z,8.27
2022-08-27T13:00:04.885Z,7.78
2022-08-27T13:02:46.594Z,8.60
2022-08-27T13:05:20.290Z,9.18
2022-08-27T13:07:51.100Z,12.75
2022-08-27T13:10:30.196Z,13.80
2022-08-27T13:13:08.569Z,10.77
2022-08-27T13:15:37.346Z,8.75
2022-08-27T13:18:09.476Z,12.23
2022-08-27T13:20:43.342Z,11.63
2022-08-27T13:23:24.190Z,10.40
2022-08-27T13:26:00.467Z,8.50
2022-08-27T13:28:30.719Z,8.45
2022-08-27T13:31:00.616Z,10.70
2022-08-27T13:33:31.550Z,9.50
2022-08-27T13:36:03.920Z,14.27
2022-08-27T13:38:36.546Z,9.93
2022-08-27T13:41:08.833Z,8.48
2022-08-27T13:43:39.266Z,11.88
2022-08-27T13:46:11.262Z,12.27
2022-08-27T13:48:43.116Z,9.73
2022-08-27T13:51:14.275Z,10.70
2022-08-27T13:54:03.242Z,11.43
2022-08-27T13:56:35.370Z,14.57
2022-08-27T13:59:12.510Z,11.15
2022-08-27T14:01:44.848Z,12.07
2022-08-27T14:04:24.307Z,9.88
2022-08-27T14:06:55.250Z,8.50
2022-08-27T14:09:26.526Z,8.85
2022-08-27T14:12:04.651Z,8.45
2022-08-27T14:14:38.603Z,12.70
2022-08-27T14:17:09.707Z,8.98
2022-08-27T14:19:40.281Z,10.57
2022-08-27T14:22:10.591Z,8.13
2022-08-27T14:24:38.823Z,8.90
2022-08-27T14:27:11.328Z,6.38
2022-08-27T14:29:40.499Z,8.77
2022-08-27T14:32:08.931Z,9.25
2022-08-27T14:34:37.447Z,10.88
2022-08-27T14:37:06.120Z,7.78
2022-08-27T14:39:35.862Z,12.32
2022-08-27T14:42:04.186Z,9.48
2022-08-27T14:44:34.224Z,9.15
2022-08-27T14:47:03.386Z,9.35
2022-08-27T14:49:35.147Z,9.68
2022-08-27T14:52:06.088Z,9.32
2022-08-27T14:54:35.765Z,8.48
2022-08-27T14:57:04.671Z,8.52
2022-08-27T14:59:34.638Z,11.05
2022-08-27T15:02:07.091Z,7.05
2022-08-27T15:04:35.932Z,6.82
2022-08-27T15:07:04.983Z,9.32
2022-08-27T15:09:33.205Z,6.18
2022-08-27T15:12:03.089Z,6.93
2022-08-27T15:14:34.043Z,11.73
2022-08-27T15:17:11.042Z,7.97
2022-08-27T15:19:51.681Z,6.68
2022-08-27T15:22:23.602Z,8.48
2022-08-27T15:24:56.035Z,8.93
2022-08-27T15:27:30.088Z,9.55
2022-08-27T15:30:10.144Z,7.45
2022-08-27T15:32:41.539Z,8.45
2022-08-27T15:35:14.047Z,7.55
2022-08-27T15:37:43.980Z,6.00
2022-08-27T15:40:14.759Z,9.48
2022-08-27T15:42:44.600Z,9.73
2022-08-27T15:45:15.111Z,8.38
2022-08-27T15:47:43.324Z,10.35
2022-08-27T15:50:11.927Z,7.53
2022-08-27T15:52:41.789Z,11.27
2022-08-27T15:55:19.994Z,8.02
2022-08-27T15:57:49.864Z,10.77
2022-08-27T16:00:19.274Z,12.07
2022-08-27T16:02:48.429Z,13.02
2022-08-27T16:05:17.396Z,9.30
2022-08-27T16:07:45.846Z,9.85
2022-08-27T16:10:14.481Z,9.68
2022-08-27T16:12:42.966Z,12.98
2022-08-27T16:15:13.942Z,11.02
2022-08-27T16:17:43.202Z,10.95
2022-08-27T16:20:13.551Z,16.38
2022-08-27T16:22:42.235Z,13.35
2022-08-27T16:25:16.528Z,10.27
2022-08-27T16:27:46.765Z,6.68
2022-08-27T16:30:16.430Z,7.93
2022-08-27T16:32:47.545Z,15.23
2022-08-27T16:35:16.601Z,9.65
2022-08-27T16:37:45.202Z,10.32
2022-08-27T16:40:15.052Z,9.13
2022-08-27T16:42:48.018Z,8.90
2022-08-27T16:45:19.027Z,10.00
2022-08-27T16:48:05.168Z,10.23
2022-08-27T16:50:36.339Z,8.35
2022-08-27T16:53:09.036Z,11.25
2022-08-27T16:55:37.893Z,14.32
2022-08-27T17:00:38.638Z,14.30
2022-08-27T17:03:09.294Z,11.45
2022-08-27T17:05:37.755Z,11.32
2022-08-27T17:08:11.744Z,11.60
2022-08-27T17:10:45.810Z,11.85
2022-08-27T17:13:16.378Z,13.70
2022-08-27T17:15:50.816Z,10.88
2022-08-27T17:18:22.222Z,12.95
2022-08-27T17:20:51.637Z,9.27
2022-08-27T17:23:24.400Z,11.15
2022-08-27T17:25:53.044Z,10.65
2022-08-27T17:28:21.291Z,11.73
2022-08-27T17:30:51.268Z,9.55
2022-08-27T17:33:24.625Z,9.65
2022-08-27T17:35:53.143Z,13.02
2022-08-27T17:38:21.372Z,11.75
2022-08-27T17:40:52.383Z,20.33
2022-08-27T17:43:21.449Z,15.20
2022-08-27T17:45:51.287Z,12.23
2022-08-27T17:48:24.785Z,12.70
2022-08-27T17:50:55.197Z,11.98
2022-08-27T17:53:23.792Z,11.57
2022-08-27T17:55:52.008Z,13.38
2022-08-27T17:58:20.891Z,15.20
2022-08-27T18:03:21.101Z,9.88
2022-08-27T18:05:49.968Z,9.82
2022-08-27T18:08:18.145Z,14.85
2022-08-27T18:10:49.594Z,12.63
2022-08-27T18:18:16.648Z,16.25
2022-08-27T18:20:45.070Z,9.73
2022-08-27T18:23:14.704Z,12.45
2022-08-27T18:28:14.855Z,15.85
2022-08-27T18:30:45.049Z,16.05
2022-08-27T18:33:14.309Z,13.00
2022-08-27T18:35:44.484Z,17.40
2022-08-27T18:38:13.398Z,10.90
2022-08-27T18:40:44.702Z,12.00
2022-08-27T18:43:14.454Z,18.80
2022-08-27T18:45:43.180Z,14.55
2022-08-27T18:48:14.632Z,15.27
2022-08-27T18:50:48.063Z,14.80
2022-08-27T18:53:18.373Z,18.98
2022-08-27T18:55:47.179Z,18.77
2022-08-27T18:58:15.509Z,12.65
2022-08-27T19:00:48.746Z,18.27
2022-08-27T19:03:22.940Z,23.88
2022-08-27T19:05:54.760Z,12.15
2022-08-27T19:08:23.653Z,18.58
2022-08-27T19:10:52.087Z,10.95
2022-08-27T19:13:20.345Z,18.67
2022-08-27T19:15:53.824Z,18.35
2022-08-27T19:18:25.356Z,16.30
2022-08-27T19:20:59.861Z,21.58
2022-08-27T19:23:28.130Z,25.38
2022-08-27T19:25:56.781Z,17.13
2022-08-27T19:28:27.264Z,14.55
2022-08-27T19:30:55.652Z,16.65
2022-08-27T19:33:24.216Z,21.00
2022-08-27T19:35:52.484Z,19.93
2022-08-27T19:38:31.739Z,18.58
2022-08-27T19:41:00.855Z,16.05
2022-08-27T19:43:30.288Z,18.95
2022-08-27T19:46:00.460Z,28.63
2022-08-27T19:48:29.448Z,16.00
2022-08-27T19:53:27.616Z,17.67
2022-08-27T19:55:59.070Z,18.33
2022-08-27T19:58:27.286Z,22.17
2022-08-27T20:00:55.711Z,22.27
2022-08-27T20:03:24.343Z,19.70
2022-08-27T20:05:53.710Z,21.40
2022-08-27T20:08:22.123Z,21.17
2022-08-27T20:10:52.094Z,15.32
2022-08-27T20:13:20.457Z,21.50
2022-08-27T20:15:48.799Z,21.27
2022-08-27T20:18:19.281Z,16.30
2022-08-27T20:20:47.815Z,20.52
2022-08-27T20:23:16.169Z,20.83
2022-08-27T20:25:44.994Z,16.67
2022-08-27T20:28:38.246Z,19.10
2022-08-27T20:31:03.933Z,16.52
2022-08-27T20:33:32.118Z,22.33
2022-08-27T20:36:01.507Z,15.63
2022-08-27T20:38:29.893Z,16.55
2022-08-27T20:40:58.223Z,18.02
2022-08-27T20:43:28.553Z,17.08
2022-08-27T20:45:57.321Z,18.30
2022-08-27T20:48:25.547Z,16.83
2022-08-27T20:50:53.719Z,21.83
2022-08-27T20:53:22.274Z,20.77
2022-08-27T20:55:50.744Z,19.40
2022-08-27T20:58:36.452Z,18.90
2022-08-27T21:01:06.717Z,21.35
2022-08-27T21:03:34.860Z,17.33
2022-08-27T21:06:03.212Z,22.33
2022-08-27T21:08:31.866Z,23.50
2022-08-27T21:11:00.830Z,17.05
2022-08-27T21:13:30.167Z,23.17
2022-08-27T21:15:58.699Z,25.20
2022-08-27T21:18:29.374Z,22.77
2022-08-27T21:20:57.721Z,25.33
2022-08-27T21:23:27.786Z,31.50
2022-08-27T21:25:56.383Z,26.80
2022-08-27T21:28:24.570Z,28.92
2022-08-27T21:30:53.156Z,25.53
2022-08-27T21:33:21.702Z,24.43
2022-08-27T21:35:51.313Z,21.85
2022-08-27T21:38:19.877Z,19.65
2022-08-27T21:40:48.005Z,22.60
2022-08-27T21:43:16.185Z,23.05
2022-08-27T21:45:45.572Z,20.43
2022-08-27T21:48:14.121Z,22.73
2022-08-27T21:50:42.362Z,21.42
2022-08-27T21:53:12.141Z,23.37
2022-08-27T21:55:40.273Z,22.95
2022-08-27T21:58:08.495Z,21.67
2022-08-27T22:00:45.974Z,20.02
2022-08-27T22:03:16.538Z,22.75
2022-08-27T22:05:45.830Z,21.88
2022-08-27T22:08:17.869Z,21.20
2022-08-27T22:10:49.303Z,19.30
2022-08-27T22:13:18.025Z,21.55
2022-08-27T22:15:46.415Z,25.10
2022-08-27T22:18:15.122Z,21.02
2022-08-27T22:20:44.377Z,20.17
2022-08-27T22:23:13.487Z,20.38
2022-08-27T22:28:13.468Z,23.08
2022-08-27T22:30:42.979Z,23.23
2022-08-27T22:33:12.095Z,20.65
2022-08-27T22:35:40.748Z,22.65
2022-08-27T22:38:09.550Z,19.73
2022-08-27T22:40:38.541Z,18.02
2022-08-27T22:43:08.788Z,21.63
2022-08-27T22:45:37.091Z,19.80
2022-08-27T22:48:05.738Z,22.27
2022-08-27T22:50:34.052Z,16.70
2022-08-27T22:53:02.343Z,19.45
2022-08-27T22:55:31.085Z,19.20
2022-08-27T22:58:01.367Z,18.92
2022-08-27T23:00:34.402Z,18.42
2022-08-27T23:03:05.642Z,17.30
2022-08-27T23:05:40.314Z,21.00
2022-08-27T23:08:13.166Z,20.25
2022-08-27T23:10:42.696Z,18.02
2022-08-27T23:15:42.373Z,17.85
2022-08-27T23:18:10.944Z,17.63
2022-08-27T23:20:39.353Z,22.90
2022-08-27T23:23:10.169Z,18.05
2022-08-27T23:25:56.486Z,15.93
2022-08-27T23:28:24.855Z,18.50
2022-08-27T23:30:55.132Z,16.15
2022-08-27T23:33:23.563Z,20.40
2022-08-27T23:35:51.961Z,20.02
2022-08-27T23:38:21.511Z,17.80
2022-08-27T23:40:50.767Z,20.02
2022-08-27T23:45:49.365Z,21.92
2022-08-27T23:48:19.150Z,19.73
2022-08-27T23:50:47.603Z,22.33
2022-08-27T23:53:15.849Z,18.30
2022-08-27T23:55:44.052Z,17.55
2022-08-27T23:58:13.033Z,24.20
